sensor_id;sensor_type;location;lat;lon;timestamp;temperature;humidity
9949;DHT22;5013;51.840;8.276;2022-12-18T00:01:47;-9.40;1.00
9949;DHT22;5013;51.840;8.276;2022-12-18T00:04:32;-9.50;99.90
9949;DHT22;5013;51.840;8.276;2022-12-18T00:06:57;-9.40;1.00
9949;DHT22;5013;51.840;8.276;2022-12-18T00:09:23;-9.40;1.00
9949;DHT22;5013;51.840;8.276;2022-12-18T00:11:49;-9.30;1.00
9949;DHT22;5013;51.840;8.276;2022-12-18T00:14:14;-9.30;1.00
9949;DHT22;5013;51.840;8.276;2022-12-18T00:16:43;-9.40;96.20
9949;DHT22;5013;51.840;8.276;2022-12-18T00:19:10;-9.50;1.00
9949;DHT22;5013;51.840;8.276;2022-12-18T00:21:35;-9.60;1.00
9949;DHT22;5013;51.840;8.276;2022-12-18T00:24:01;-9.50;1.00
9949;DHT22;5013;51.840;8.276;2022-12-18T00:26:31;-9.50;1.00
9949;DHT22;5013;51.840;8.276;2022-12-18T00:29:06;-9.40;1.00
9949;DHT22;5013;51.840;8.276;2022-12-18T00:31:32;-9.40;99.90
9949;DHT22;5013;51.840;8.276;2022-12-18T00:33:58;-9.40;99.90
9949;DHT22;5013;51.840;8.276;2022-12-18T00:36:30;-9.40;1.00
9949;DHT22;5013;51.840;8.276;2022-12-18T00:38:58;-9.40;99.90
9949;DHT22;5013;51.840;8.276;2022-12-18T00:41:25;-9.30;99.90
9949;DHT22;5013;51.840;8.276;2022-12-18T00:44:11;-9.30;99.90
9949;DHT22;5013;51.840;8.276;2022-12-18T00:46:38;-9.30;99.90
9949;DHT22;5013;51.840;8.276;2022-12-18T00:49:04;-9.30;1.00
9949;DHT22;5013;51.840;8.276;2022-12-18T00:51:29;-9.40;1.00
9949;DHT22;5013;51.840;8.276;2022-12-18T00:53:55;-9.40;99.90
9949;DHT22;5013;51.840;8.276;2022-12-18T00:56:21;-9.40;1.00
9949;DHT22;5013;51.840;8.276;2022-12-18T00:58:47;-9.40;1.00
9949;DHT22;5013;51.840;8.276;2022-12-18T01:01:13;-9.40;99.90
9949;DHT22;5013;51.840;8.276;2022-12-18T01:03:39;-9.40;99.90
9949;DHT22;5013;51.840;8.276;2022-12-18T01:06:10;-9.30;99.90
9949;DHT22;5013;51.840;8.276;2022-12-18T01:08:37;-9.30;17.70
9949;DHT22;5013;51.840;8.276;2022-12-18T01:11:17;-9.30;99.90
9949;DHT22;5013;51.840;8.276;2022-12-18T01:13:44;-9.30;74.10
9949;DHT22;5013;51.840;8.276;2022-12-18T01:16:15;-9.30;1.00
9949;DHT22;5013;51.840;8.276;2022-12-18T01:18:41;-9.50;99.90
9949;DHT22;5013;51.840;8.276;2022-12-18T01:21:12;-9.60;99.90
9949;DHT22;5013;51.840;8.276;2022-12-18T01:23:38;-9.60;1.00
9949;DHT22;5013;51.840;8.276;2022-12-18T01:26:14;-9.50;1.00
9949;DHT22;5013;51.840;8.276;2022-12-18T01:28:40;-9.50;1.00
9949;DHT22;5013;51.840;8.276;2022-12-18T01:31:33;-9.40;1.00
9949;DHT22;5013;51.840;8.276;2022-12-18T01:34:03;-9.40;99.90
9949;DHT22;5013;51.840;8.276;2022-12-18T01:36:31;-9.40;99.90
9949;DHT22;5013;51.840;8.276;2022-12-18T01:39:04;-9.40;1.00
9949;DHT22;5013;51.840;8.276;2022-12-18T01:41:30;-9.50;99.90
9949;DHT22;5013;51.840;8.276;2022-12-18T01:49:55;-9.40;1.00
9949;DHT22;5013;51.840;8.276;2022-12-18T01:52:21;-9.40;1.00
9949;DHT22;5013;51.840;8.276;2022-12-18T01:54:49;-9.40;1.00
9949;DHT22;5013;51.840;8.276;2022-12-18T01:57:15;-9.50;99.90
9949;DHT22;5013;51.840;8.276;2022-12-18T01:59:43;-9.60;1.00
9949;DHT22;5013;51.840;8.276;2022-12-18T02:02:11;-9.70;1.00
9949;DHT22;5013;51.840;8.276;2022-12-18T02:04:37;-9.60;1.00
9949;DHT22;5013;51.840;8.276;2022-12-18T02:13:02;-9.50;1.00
9949;DHT22;5013;51.840;8.276;2022-12-18T02:18:36;-9.50;99.90
9949;DHT22;5013;51.840;8.276;2022-12-18T02:21:21;-9.50;99.90
9949;DHT22;5013;51.840;8.276;2022-12-18T02:26:49;-9.50;99.90
9949;DHT22;5013;51.840;8.276;2022-12-18T02:29:36;-9.60;99.90
9949;DHT22;5013;51.840;8.276;2022-12-18T02:32:07;-9.60;1.00
9949;DHT22;5013;51.840;8.276;2022-12-18T02:34:38;-9.60;1.00
9949;DHT22;5013;51.840;8.276;2022-12-18T02:37:07;-9.50;1.00
9949;DHT22;5013;51.840;8.276;2022-12-18T02:39:39;-9.60;1.00
9949;DHT22;5013;51.840;8.276;2022-12-18T02:42:06;-9.60;1.00
9949;DHT22;5013;51.840;8.276;2022-12-18T02:44:42;-9.70;99.90
9949;DHT22;5013;51.840;8.276;2022-12-18T02:47:10;-9.70;1.00
9949;DHT22;5013;51.840;8.276;2022-12-18T02:57:55;-9.60;24.50
9949;DHT22;5013;51.840;8.276;2022-12-18T03:00:28;-9.60;1.00
9949;DHT22;5013;51.840;8.276;2022-12-18T03:03:33;-9.60;1.00
9949;DHT22;5013;51.840;8.276;2022-12-18T03:08:35;-9.60;99.90
9949;DHT22;5013;51.840;8.276;2022-12-18T03:11:08;-9.60;99.90
9949;DHT22;5013;51.840;8.276;2022-12-18T03:16:06;-9.60;99.90
9949;DHT22;5013;51.840;8.276;2022-12-18T03:18:38;-9.60;99.90
9949;DHT22;5013;51.840;8.276;2022-12-18T03:21:08;-9.60;99.90
9949;DHT22;5013;51.840;8.276;2022-12-18T03:23:42;-9.60;99.90
9949;DHT22;5013;51.840;8.276;2022-12-18T03:26:12;-9.60;99.90
9949;DHT22;5013;51.840;8.276;2022-12-18T03:28:43;-9.70;1.00
9949;DHT22;5013;51.840;8.276;2022-12-18T03:31:12;-9.70;1.00
9949;DHT22;5013;51.840;8.276;2022-12-18T03:33:59;-9.70;99.90
9949;DHT22;5013;51.840;8.276;2022-12-18T03:36:26;-9.70;1.00
9949;DHT22;5013;51.840;8.276;2022-12-18T03:38:52;-9.70;1.00
9949;DHT22;5013;51.840;8.276;2022-12-18T03:44:04;-9.60;1.00
9949;DHT22;5013;51.840;8.276;2022-12-18T03:46:54;-9.60;99.90
9949;DHT22;5013;51.840;8.276;2022-12-18T03:49:37;-9.70;99.90
9949;DHT22;5013;51.840;8.276;2022-12-18T03:52:18;-9.70;99.90
9949;DHT22;5013;51.840;8.276;2022-12-18T03:54:46;-9.70;99.90
9949;DHT22;5013;51.840;8.276;2022-12-18T03:57:21;-9.70;99.90
9949;DHT22;5013;51.840;8.276;2022-12-18T03:59:54;-9.70;99.90
9949;DHT22;5013;51.840;8.276;2022-12-18T04:02:22;-9.80;49.60
9949;DHT22;5013;51.840;8.276;2022-12-18T04:04:55;-9.80;1.00
9949;DHT22;5013;51.840;8.276;2022-12-18T04:07:23;-9.80;99.90
9949;DHT22;5013;51.840;8.276;2022-12-18T04:09:51;-9.80;99.90
9949;DHT22;5013;51.840;8.276;2022-12-18T04:12:18;-9.80;99.90
9949;DHT22;5013;51.840;8.276;2022-12-18T04:14:44;-9.80;99.90
9949;DHT22;5013;51.840;8.276;2022-12-18T04:17:10;-9.80;99.90
9949;DHT22;5013;51.840;8.276;2022-12-18T04:19:35;-9.80;49.50
9949;DHT22;5013;51.840;8.276;2022-12-18T04:22:01;-9.80;1.00
9949;DHT22;5013;51.840;8.276;2022-12-18T04:24:26;-9.80;1.00
9949;DHT22;5013;51.840;8.276;2022-12-18T04:26:52;-9.80;1.00
9949;DHT22;5013;51.840;8.276;2022-12-18T04:29:18;-9.90;1.00
9949;DHT22;5013;51.840;8.276;2022-12-18T04:31:43;-9.80;1.00
9949;DHT22;5013;51.840;8.276;2022-12-18T04:34:09;-9.90;1.00
9949;DHT22;5013;51.840;8.276;2022-12-18T04:36:35;-9.90;1.00
9949;DHT22;5013;51.840;8.276;2022-12-18T04:39:00;-9.90;1.00
9949;DHT22;5013;51.840;8.276;2022-12-18T04:41:26;-9.80;1.00
9949;DHT22;5013;51.840;8.276;2022-12-18T04:43:51;-9.80;1.00
9949;DHT22;5013;51.840;8.276;2022-12-18T04:46:17;-9.80;1.00
9949;DHT22;5013;51.840;8.276;2022-12-18T04:48:45;-9.80;1.00
9949;DHT22;5013;51.840;8.276;2022-12-18T04:51:11;-9.80;1.00
9949;DHT22;5013;51.840;8.276;2022-12-18T04:53:37;-9.90;1.00
9949;DHT22;5013;51.840;8.276;2022-12-18T04:56:08;-9.90;1.00
9949;DHT22;5013;51.840;8.276;2022-12-18T04:58:34;-9.90;1.00
9949;DHT22;5013;51.840;8.276;2022-12-18T05:00:59;-9.90;1.00
9949;DHT22;5013;51.840;8.276;2022-12-18T05:03:25;-9.90;1.00
9949;DHT22;5013;51.840;8.276;2022-12-18T05:05:51;-9.90;1.00
9949;DHT22;5013;51.840;8.276;2022-12-18T05:08:17;-9.90;1.00
9949;DHT22;5013;51.840;8.276;2022-12-18T05:10:48;-10.10;99.90
9949;DHT22;5013;51.840;8.276;2022-12-18T05:13:14;-10.10;1.00
9949;DHT22;5013;51.840;8.276;2022-12-18T05:15:40;-10.00;13.90
9949;DHT22;5013;51.840;8.276;2022-12-18T05:18:07;-10.00;31.90
9949;DHT22;5013;51.840;8.276;2022-12-18T05:20:33;-10.00;99.90
9949;DHT22;5013;51.840;8.276;2022-12-18T05:22:58;-10.00;1.00
9949;DHT22;5013;51.840;8.276;2022-12-18T05:25:24;-10.00;31.20
9949;DHT22;5013;51.840;8.276;2022-12-18T05:27:50;-10.00;1.00
9949;DHT22;5013;51.840;8.276;2022-12-18T05:30:16;-10.00;31.60
9949;DHT22;5013;51.840;8.276;2022-12-18T05:32:42;-10.00;99.90
9949;DHT22;5013;51.840;8.276;2022-12-18T05:35:10;-9.90;59.60
9949;DHT22;5013;51.840;8.276;2022-12-18T05:37:36;-9.90;1.00
9949;DHT22;5013;51.840;8.276;2022-12-18T05:40:03;-9.90;1.00
9949;DHT22;5013;51.840;8.276;2022-12-18T05:42:28;-10.00;1.00
9949;DHT22;5013;51.840;8.276;2022-12-18T05:44:54;-10.00;1.00
9949;DHT22;5013;51.840;8.276;2022-12-18T05:47:20;-9.90;1.00
9949;DHT22;5013;51.840;8.276;2022-12-18T05:49:45;-9.90;1.00
9949;DHT22;5013;51.840;8.276;2022-12-18T05:52:11;-9.90;1.00
9949;DHT22;5013;51.840;8.276;2022-12-18T05:54:36;-9.90;1.00
9949;DHT22;5013;51.840;8.276;2022-12-18T05:57:02;-9.90;1.00
9949;DHT22;5013;51.840;8.276;2022-12-18T05:59:28;-9.90;1.00
9949;DHT22;5013;51.840;8.276;2022-12-18T06:01:53;-9.90;1.00
9949;DHT22;5013;51.840;8.276;2022-12-18T06:04:19;-9.90;1.00
9949;DHT22;5013;51.840;8.276;2022-12-18T06:06:44;-9.90;1.00
9949;DHT22;5013;51.840;8.276;2022-12-18T06:09:10;-9.90;1.00
9949;DHT22;5013;51.840;8.276;2022-12-18T06:11:37;-9.90;1.00
9949;DHT22;5013;51.840;8.276;2022-12-18T06:14:04;-9.80;1.00
9949;DHT22;5013;51.840;8.276;2022-12-18T06:16:31;-9.80;1.00
9949;DHT22;5013;51.840;8.276;2022-12-18T06:19:01;-9.80;1.00
9949;DHT22;5013;51.840;8.276;2022-12-18T06:24:48;-9.90;1.00
9949;DHT22;5013;51.840;8.276;2022-12-18T06:27:15;-9.80;1.00
9949;DHT22;5013;51.840;8.276;2022-12-18T06:29:41;-9.90;1.00
9949;DHT22;5013;51.840;8.276;2022-12-18T06:35:28;-9.90;1.00
9949;DHT22;5013;51.840;8.276;2022-12-18T06:37:54;-10.00;1.00
9949;DHT22;5013;51.840;8.276;2022-12-18T06:43:42;-9.90;56.90
9949;DHT22;5013;51.840;8.276;2022-12-18T06:46:08;-9.90;99.90
9949;DHT22;5013;51.840;8.276;2022-12-18T06:48:34;-9.90;99.90
9949;DHT22;5013;51.840;8.276;2022-12-18T06:54:22;-9.90;99.90
9949;DHT22;5013;51.840;8.276;2022-12-18T06:56:48;-9.90;99.90
9949;DHT22;5013;51.840;8.276;2022-12-18T06:59:14;-9.80;99.90
9949;DHT22;5013;51.840;8.276;2022-12-18T07:01:40;-9.80;99.90
9949;DHT22;5013;51.840;8.276;2022-12-18T07:04:05;-9.90;1.00
9949;DHT22;5013;51.840;8.276;2022-12-18T07:06:31;-9.90;61.50
9949;DHT22;5013;51.840;8.276;2022-12-18T07:08:57;-9.90;99.90
9949;DHT22;5013;51.840;8.276;2022-12-18T07:14:44;-9.80;99.90
9949;DHT22;5013;51.840;8.276;2022-12-18T07:17:10;-9.70;99.90
9949;DHT22;5013;51.840;8.276;2022-12-18T07:19:36;-9.70;99.90
9949;DHT22;5013;51.840;8.276;2022-12-18T07:22:01;-9.80;99.90
9949;DHT22;5013;51.840;8.276;2022-12-18T07:24:27;-9.70;99.90
9949;DHT22;5013;51.840;8.276;2022-12-18T07:26:53;-9.70;99.90
9949;DHT22;5013;51.840;8.276;2022-12-18T07:29:19;-9.80;99.90
9949;DHT22;5013;51.840;8.276;2022-12-18T07:31:44;-9.80;1.00
9949;DHT22;5013;51.840;8.276;2022-12-18T07:34:14;-9.70;1.00
9949;DHT22;5013;51.840;8.276;2022-12-18T07:36:40;-9.70;99.90
9949;DHT22;5013;51.840;8.276;2022-12-18T07:39:06;-9.70;99.90
9949;DHT22;5013;51.840;8.276;2022-12-18T07:41:32;-9.60;99.90
9949;DHT22;5013;51.840;8.276;2022-12-18T07:43:58;-9.60;99.90
9949;DHT22;5013;51.840;8.276;2022-12-18T07:46:23;-9.60;99.90
9949;DHT22;5013;51.840;8.276;2022-12-18T07:48:49;-9.60;99.90
9949;DHT22;5013;51.840;8.276;2022-12-18T07:51:14;-9.60;99.90
9949;DHT22;5013;51.840;8.276;2022-12-18T07:53:40;-9.50;99.90
9949;DHT22;5013;51.840;8.276;2022-12-18T07:56:08;-9.60;99.90
9949;DHT22;5013;51.840;8.276;2022-12-18T07:58:35;-9.50;99.90
9949;DHT22;5013;51.840;8.276;2022-12-18T08:01:05;-9.50;1.00
9949;DHT22;5013;51.840;8.276;2022-12-18T08:03:32;-9.40;1.00
9949;DHT22;5013;51.840;8.276;2022-12-18T08:06:05;-9.40;99.90
9949;DHT22;5013;51.840;8.276;2022-12-18T08:08:32;-9.40;99.90
9949;DHT22;5013;51.840;8.276;2022-12-18T08:10:58;-9.40;1.00
9949;DHT22;5013;51.840;8.276;2022-12-18T08:13:25;-9.30;1.00
9949;DHT22;5013;51.840;8.276;2022-12-18T08:16:02;-9.30;1.00
9949;DHT22;5013;51.840;8.276;2022-12-18T08:18:28;-9.20;1.00
9949;DHT22;5013;51.840;8.276;2022-12-18T08:20:55;-9.10;1.00
9949;DHT22;5013;51.840;8.276;2022-12-18T08:23:21;-9.00;1.00
9949;DHT22;5013;51.840;8.276;2022-12-18T08:25:46;-9.00;1.00
9949;DHT22;5013;51.840;8.276;2022-12-18T08:28:12;-8.90;99.90
9949;DHT22;5013;51.840;8.276;2022-12-18T08:30:38;-8.80;99.90
9949;DHT22;5013;51.840;8.276;2022-12-18T08:33:35;-8.70;1.00
9949;DHT22;5013;51.840;8.276;2022-12-18T08:36:02;-8.50;99.90
9949;DHT22;5013;51.840;8.276;2022-12-18T08:38:28;-8.40;1.00
9949;DHT22;5013;51.840;8.276;2022-12-18T08:41:05;-8.20;99.90
9949;DHT22;5013;51.840;8.276;2022-12-18T08:43:31;-8.00;1.00
9949;DHT22;5013;51.840;8.276;2022-12-18T08:46:16;-7.80;99.90
9949;DHT22;5013;51.840;8.276;2022-12-18T08:48:42;-7.60;1.00
9949;DHT22;5013;51.840;8.276;2022-12-18T08:51:07;-7.40;99.90
9949;DHT22;5013;51.840;8.276;2022-12-18T08:53:35;-7.30;1.00
9949;DHT22;5013;51.840;8.276;2022-12-18T08:56:01;-7.10;1.00
9949;DHT22;5013;51.840;8.276;2022-12-18T08:58:27;-7.00;1.00
9949;DHT22;5013;51.840;8.276;2022-12-18T09:04:15;-6.50;1.00
9949;DHT22;5013;51.840;8.276;2022-12-18T09:06:41;-6.20;1.00
9949;DHT22;5013;51.840;8.276;2022-12-18T09:09:06;-6.00;1.00
9949;DHT22;5013;51.840;8.276;2022-12-18T09:14:54;-5.50;76.50
9949;DHT22;5013;51.840;8.276;2022-12-18T09:17:20;-5.40;99.90
9949;DHT22;5013;51.840;8.276;2022-12-18T09:23:08;-4.90;99.90
9949;DHT22;5013;51.840;8.276;2022-12-18T09:28:56;-4.50;99.90
9949;DHT22;5013;51.840;8.276;2022-12-18T09:31:23;-4.20;99.90
9949;DHT22;5013;51.840;8.276;2022-12-18T09:33:49;-4.20;99.90
9949;DHT22;5013;51.840;8.276;2022-12-18T09:36:16;-4.10;99.90
9949;DHT22;5013;51.840;8.276;2022-12-18T09:38:43;-3.90;99.90
9949;DHT22;5013;51.840;8.276;2022-12-18T09:44:43;-3.60;99.90
9949;DHT22;5013;51.840;8.276;2022-12-18T09:50:39;-3.30;99.90
9949;DHT22;5013;51.840;8.276;2022-12-18T09:53:12;-3.20;99.90
9949;DHT22;5013;51.840;8.276;2022-12-18T09:55:42;-3.10;99.90
9949;DHT22;5013;51.840;8.276;2022-12-18T09:58:15;-3.00;99.90
9949;DHT22;5013;51.840;8.276;2022-12-18T10:00:42;-2.90;99.90
9949;DHT22;5013;51.840;8.276;2022-12-18T10:03:13;-2.80;99.90
9949;DHT22;5013;51.840;8.276;2022-12-18T10:06:13;-2.70;99.90
9949;DHT22;5013;51.840;8.276;2022-12-18T10:17:03;-2.20;99.90
9949;DHT22;5013;51.840;8.276;2022-12-18T10:19:59;-2.00;81.90
9949;DHT22;5013;51.840;8.276;2022-12-18T10:23:00;-1.90;31.10
9949;DHT22;5013;51.840;8.276;2022-12-18T10:28:14;-1.70;1.00
9949;DHT22;5013;51.840;8.276;2022-12-18T10:30:42;-1.60;1.00
9949;DHT22;5013;51.840;8.276;2022-12-18T10:33:19;-1.60;1.00
9949;DHT22;5013;51.840;8.276;2022-12-18T10:35:47;-1.50;1.00
9949;DHT22;5013;51.840;8.276;2022-12-18T10:46:20;-1.60;1.00
9949;DHT22;5013;51.840;8.276;2022-12-18T10:48:54;-1.50;1.00
9949;DHT22;5013;51.840;8.276;2022-12-18T10:51:34;-1.50;1.00
9949;DHT22;5013;51.840;8.276;2022-12-18T10:54:02;-1.50;1.00
9949;DHT22;5013;51.840;8.276;2022-12-18T10:56:30;-1.50;1.00
9949;DHT22;5013;51.840;8.276;2022-12-18T10:59:03;-1.50;1.00
9949;DHT22;5013;51.840;8.276;2022-12-18T11:01:46;-1.50;1.00
9949;DHT22;5013;51.840;8.276;2022-12-18T11:04:17;-1.50;1.00
9949;DHT22;5013;51.840;8.276;2022-12-18T11:06:59;-1.40;1.00
9949;DHT22;5013;51.840;8.276;2022-12-18T11:09:39;-1.30;1.00
9949;DHT22;5013;51.840;8.276;2022-12-18T11:12:19;-1.30;1.00
9949;DHT22;5013;51.840;8.276;2022-12-18T11:14:53;-1.20;99.90
9949;DHT22;5013;51.840;8.276;2022-12-18T11:20:58;-1.00;1.00
9949;DHT22;5013;51.840;8.276;2022-12-18T11:23:25;-0.90;99.90
9949;DHT22;5013;51.840;8.276;2022-12-18T11:25:54;-0.90;1.00
9949;DHT22;5013;51.840;8.276;2022-12-18T11:29:07;-0.70;20.30
9949;DHT22;5013;51.840;8.276;2022-12-18T11:31:26;-0.60;1.00
9949;DHT22;5013;51.840;8.276;2022-12-18T11:34:12;-0.50;1.00
9949;DHT22;5013;51.840;8.276;2022-12-18T11:36:43;-0.60;1.00
9949;DHT22;5013;51.840;8.276;2022-12-18T11:39:24;-0.60;1.00
9949;DHT22;5013;51.840;8.276;2022-12-18T11:44:51;-0.40;99.90
9949;DHT22;5013;51.840;8.276;2022-12-18T11:47:35;-0.40;26.40
9949;DHT22;5013;51.840;8.276;2022-12-18T11:50:05;-0.30;8.90
9949;DHT22;5013;51.840;8.276;2022-12-18T11:52:40;-0.30;11.00
9949;DHT22;5013;51.840;8.276;2022-12-18T12:29:50;-0.10;99.90
9949;DHT22;5013;51.840;8.276;2022-12-18T12:40:56;-0.10;27.30
9949;DHT22;5013;51.840;8.276;2022-12-18T12:43:39;0.00;1.00
9949;DHT22;5013;51.840;8.276;2022-12-18T12:49:31;0.00;2.70
9949;DHT22;5013;51.840;8.276;2022-12-18T12:52:10;-0.10;99.90
9949;DHT22;5013;51.840;8.276;2022-12-18T12:54:36;0.00;60.90
9949;DHT22;5013;51.840;8.276;2022-12-18T13:08:03;0.00;1.00
9949;DHT22;5013;51.840;8.276;2022-12-18T13:10:39;0.00;1.00
9949;DHT22;5013;51.840;8.276;2022-12-18T13:13:09;0.00;1.00
9949;DHT22;5013;51.840;8.276;2022-12-18T13:15:42;0.00;1.00
9949;DHT22;5013;51.840;8.276;2022-12-18T13:20:36;-0.10;1.00
9949;DHT22;5013;51.840;8.276;2022-12-18T13:37:41;0.00;99.90
9949;DHT22;5013;51.840;8.276;2022-12-18T13:43:00;0.00;1.00
9949;DHT22;5013;51.840;8.276;2022-12-18T13:45:41;0.10;99.90
9949;DHT22;5013;51.840;8.276;2022-12-18T13:48:19;0.00;99.90
9949;DHT22;5013;51.840;8.276;2022-12-18T13:51:07;0.00;99.90
9949;DHT22;5013;51.840;8.276;2022-12-18T13:53:42;0.00;99.90
9949;DHT22;5013;51.840;8.276;2022-12-18T13:56:08;0.00;99.90
9949;DHT22;5013;51.840;8.276;2022-12-18T13:58:34;0.00;99.90
9949;DHT22;5013;51.840;8.276;2022-12-18T14:01:00;0.00;1.00
9949;DHT22;5013;51.840;8.276;2022-12-18T14:03:28;-0.10;99.90
9949;DHT22;5013;51.840;8.276;2022-12-18T14:06:06;-0.20;99.90
9949;DHT22;5013;51.840;8.276;2022-12-18T14:08:37;-0.10;99.90
9949;DHT22;5013;51.840;8.276;2022-12-18T14:11:04;-0.10;99.90
9949;DHT22;5013;51.840;8.276;2022-12-18T14:13:35;-0.10;99.90
9949;DHT22;5013;51.840;8.276;2022-12-18T14:16:04;-0.10;34.30
9949;DHT22;5013;51.840;8.276;2022-12-18T14:18:42;-0.10;99.90
9949;DHT22;5013;51.840;8.276;2022-12-18T14:21:38;-0.20;99.90
9949;DHT22;5013;51.840;8.276;2022-12-18T14:24:22;-0.10;99.90
9949;DHT22;5013;51.840;8.276;2022-12-18T14:26:51;-0.20;99.90
9949;DHT22;5013;51.840;8.276;2022-12-18T14:29:34;-0.20;99.90
9949;DHT22;5013;51.840;8.276;2022-12-18T14:32:16;-0.20;41.40
9949;DHT22;5013;51.840;8.276;2022-12-18T14:34:53;-0.20;99.90
9949;DHT22;5013;51.840;8.276;2022-12-18T14:37:26;-0.30;99.90
9949;DHT22;5013;51.840;8.276;2022-12-18T14:39:57;-0.30;99.90
9949;DHT22;5013;51.840;8.276;2022-12-18T14:42:25;-0.30;99.90
9949;DHT22;5013;51.840;8.276;2022-12-18T14:51:24;-0.30;99.90
9949;DHT22;5013;51.840;8.276;2022-12-18T14:53:57;-0.40;21.00
9949;DHT22;5013;51.840;8.276;2022-12-18T14:56:24;-0.40;12.50
9949;DHT22;5013;51.840;8.276;2022-12-18T15:02:28;-0.30;1.00
9949;DHT22;5013;51.840;8.276;2022-12-18T15:05:03;-0.40;1.00
9949;DHT22;5013;51.840;8.276;2022-12-18T15:10:51;-0.30;6.40
9949;DHT22;5013;51.840;8.276;2022-12-18T15:13:24;-0.40;1.00
9949;DHT22;5013;51.840;8.276;2022-12-18T15:19:12;-0.30;1.00
9949;DHT22;5013;51.840;8.276;2022-12-18T15:21:42;-0.40;1.00
9949;DHT22;5013;51.840;8.276;2022-12-18T15:24:17;-0.40;1.00
9949;DHT22;5013;51.840;8.276;2022-12-18T15:26:43;-0.40;1.00
9949;DHT22;5013;51.840;8.276;2022-12-18T15:29:20;-0.40;1.00
9949;DHT22;5013;51.840;8.276;2022-12-18T15:32:04;-0.40;1.00
9949;DHT22;5013;51.840;8.276;2022-12-18T15:34:32;-0.40;1.00
9949;DHT22;5013;51.840;8.276;2022-12-18T15:36:59;-0.40;1.00
9949;DHT22;5013;51.840;8.276;2022-12-18T15:39:25;-0.40;1.00
9949;DHT22;5013;51.840;8.276;2022-12-18T15:41:51;-0.40;1.00
9949;DHT22;5013;51.840;8.276;2022-12-18T15:47:57;-0.40;1.00
9949;DHT22;5013;51.840;8.276;2022-12-18T15:50:23;-0.50;1.00
9949;DHT22;5013;51.840;8.276;2022-12-18T15:52:51;-0.50;67.10
9949;DHT22;5013;51.840;8.276;2022-12-18T15:55:22;-0.50;1.00
9949;DHT22;5013;51.840;8.276;2022-12-18T15:58:07;-0.50;1.00
9949;DHT22;5013;51.840;8.276;2022-12-18T16:00:35;-0.50;1.00
9949;DHT22;5013;51.840;8.276;2022-12-18T16:03:02;-0.50;1.00
9949;DHT22;5013;51.840;8.276;2022-12-18T16:05:29;-0.50;1.00
9949;DHT22;5013;51.840;8.276;2022-12-18T16:07:55;-0.50;1.00
9949;DHT22;5013;51.840;8.276;2022-12-18T16:10:25;-0.50;1.00
9949;DHT22;5013;51.840;8.276;2022-12-18T16:12:51;-0.50;1.00
9949;DHT22;5013;51.840;8.276;2022-12-18T16:15:17;-0.50;1.00
9949;DHT22;5013;51.840;8.276;2022-12-18T16:17:43;-0.50;1.00
9949;DHT22;5013;51.840;8.276;2022-12-18T16:20:17;-0.50;1.00
9949;DHT22;5013;51.840;8.276;2022-12-18T16:22:44;-0.50;1.00
9949;DHT22;5013;51.840;8.276;2022-12-18T16:25:25;-0.50;1.00
9949;DHT22;5013;51.840;8.276;2022-12-18T16:27:51;-0.50;1.00
9949;DHT22;5013;51.840;8.276;2022-12-18T16:33:39;-0.50;1.00
9949;DHT22;5013;51.840;8.276;2022-12-18T16:36:05;-0.50;1.00
9949;DHT22;5013;51.840;8.276;2022-12-18T16:38:31;-0.60;1.00
9949;DHT22;5013;51.840;8.276;2022-12-18T16:40:56;-0.60;1.00
9949;DHT22;5013;51.840;8.276;2022-12-18T16:43:40;-0.50;1.00
9949;DHT22;5013;51.840;8.276;2022-12-18T16:46:06;-0.50;1.00
9949;DHT22;5013;51.840;8.276;2022-12-18T16:48:33;-0.60;1.00
9949;DHT22;5013;51.840;8.276;2022-12-18T16:54:20;-0.60;1.00
9949;DHT22;5013;51.840;8.276;2022-12-18T16:56:46;-0.60;1.00
9949;DHT22;5013;51.840;8.276;2022-12-18T17:02:37;-0.60;1.00
9949;DHT22;5013;51.840;8.276;2022-12-18T17:05:03;-0.60;1.00
9949;DHT22;5013;51.840;8.276;2022-12-18T17:07:29;-0.60;1.00
9949;DHT22;5013;51.840;8.276;2022-12-18T17:13:16;-0.60;1.00
9949;DHT22;5013;51.840;8.276;2022-12-18T17:15:42;-0.60;1.00
9949;DHT22;5013;51.840;8.276;2022-12-18T17:18:08;-0.60;1.00
9949;DHT22;5013;51.840;8.276;2022-12-18T17:20:33;-0.60;1.00
9949;DHT22;5013;51.840;8.276;2022-12-18T17:22:59;-0.60;1.00
9949;DHT22;5013;51.840;8.276;2022-12-18T17:25:24;-0.60;1.00
9949;DHT22;5013;51.840;8.276;2022-12-18T17:27:50;-0.60;1.00
9949;DHT22;5013;51.840;8.276;2022-12-18T17:33:38;-0.60;1.00
9949;DHT22;5013;51.840;8.276;2022-12-18T17:36:04;-0.60;99.90
9949;DHT22;5013;51.840;8.276;2022-12-18T17:38:30;-0.60;99.90
9949;DHT22;5013;51.840;8.276;2022-12-18T17:41:03;-0.60;1.00
9949;DHT22;5013;51.840;8.276;2022-12-18T17:43:29;-0.60;1.00
9949;DHT22;5013;51.840;8.276;2022-12-18T17:49:17;-0.70;1.00
9949;DHT22;5013;51.840;8.276;2022-12-18T17:51:42;-0.70;1.00
9949;DHT22;5013;51.840;8.276;2022-12-18T17:54:08;-0.80;1.00
9949;DHT22;5013;51.840;8.276;2022-12-18T17:56:34;-0.80;1.00
9949;DHT22;5013;51.840;8.276;2022-12-18T17:59:00;-0.80;1.00
9949;DHT22;5013;51.840;8.276;2022-12-18T18:01:26;-0.80;1.00
9949;DHT22;5013;51.840;8.276;2022-12-18T18:03:52;-0.80;1.00
9949;DHT22;5013;51.840;8.276;2022-12-18T18:06:22;-0.80;1.00
9949;DHT22;5013;51.840;8.276;2022-12-18T18:08:48;-0.90;1.00
9949;DHT22;5013;51.840;8.276;2022-12-18T18:11:16;-0.80;1.00
9949;DHT22;5013;51.840;8.276;2022-12-18T18:14:03;-0.80;1.00
9949;DHT22;5013;51.840;8.276;2022-12-18T18:16:34;-0.90;1.00
9949;DHT22;5013;51.840;8.276;2022-12-18T18:19:01;-0.90;1.00
9949;DHT22;5013;51.840;8.276;2022-12-18T18:21:27;-0.90;1.00
9949;DHT22;5013;51.840;8.276;2022-12-18T18:23:53;-0.90;1.00
9949;DHT22;5013;51.840;8.276;2022-12-18T18:26:19;-0.90;1.00
9949;DHT22;5013;51.840;8.276;2022-12-18T18:28:45;-0.90;1.00
9949;DHT22;5013;51.840;8.276;2022-12-18T18:31:11;-0.90;1.00
9949;DHT22;5013;51.840;8.276;2022-12-18T18:33:37;-0.90;1.00
9949;DHT22;5013;51.840;8.276;2022-12-18T18:39:25;-1.00;1.00
9949;DHT22;5013;51.840;8.276;2022-12-18T18:41:51;-1.00;1.00
9949;DHT22;5013;51.840;8.276;2022-12-18T18:44:18;-1.00;1.00
9949;DHT22;5013;51.840;8.276;2022-12-18T18:46:45;-0.90;1.00
9949;DHT22;5013;51.840;8.276;2022-12-18T18:49:12;-1.00;1.00
9949;DHT22;5013;51.840;8.276;2022-12-18T18:51:41;-1.10;1.00
9949;DHT22;5013;51.840;8.276;2022-12-18T18:54:07;-1.10;56.90
9949;DHT22;5013;51.840;8.276;2022-12-18T18:56:33;-1.10;99.90
9949;DHT22;5013;51.840;8.276;2022-12-18T18:58:59;-1.10;48.40
9949;DHT22;5013;51.840;8.276;2022-12-18T19:01:25;-1.10;99.90
9949;DHT22;5013;51.840;8.276;2022-12-18T19:03:51;-1.10;99.90
9949;DHT22;5013;51.840;8.276;2022-12-18T19:09:39;-1.10;99.90
9949;DHT22;5013;51.840;8.276;2022-12-18T19:12:05;-1.20;1.00
9949;DHT22;5013;51.840;8.276;2022-12-18T19:14:49;-1.20;1.00
9949;DHT22;5013;51.840;8.276;2022-12-18T19:17:14;-1.20;1.00
9949;DHT22;5013;51.840;8.276;2022-12-18T19:19:40;-1.20;1.00
9949;DHT22;5013;51.840;8.276;2022-12-18T19:22:06;-1.10;1.00
9949;DHT22;5013;51.840;8.276;2022-12-18T19:24:31;-1.10;1.00
9949;DHT22;5013;51.840;8.276;2022-12-18T19:26:57;-1.10;1.00
9949;DHT22;5013;51.840;8.276;2022-12-18T19:29:23;-1.10;1.00
9949;DHT22;5013;51.840;8.276;2022-12-18T19:31:48;-1.10;1.00
9949;DHT22;5013;51.840;8.276;2022-12-18T19:37:36;-1.20;99.90
9949;DHT22;5013;51.840;8.276;2022-12-18T19:40:01;-1.10;99.90
9949;DHT22;5013;51.840;8.276;2022-12-18T19:42:27;-1.30;99.90
9949;DHT22;5013;51.840;8.276;2022-12-18T19:44:53;-1.30;99.90
9949;DHT22;5013;51.840;8.276;2022-12-18T19:47:18;-1.30;99.90
9949;DHT22;5013;51.840;8.276;2022-12-18T19:49:44;-1.10;1.00
9949;DHT22;5013;51.840;8.276;2022-12-18T19:52:09;-1.20;99.90
9949;DHT22;5013;51.840;8.276;2022-12-18T19:54:35;-1.20;99.90
9949;DHT22;5013;51.840;8.276;2022-12-18T19:57:01;-1.10;99.90
9949;DHT22;5013;51.840;8.276;2022-12-18T19:59:27;-1.00;99.90
9949;DHT22;5013;51.840;8.276;2022-12-18T20:01:52;-1.10;1.00
9949;DHT22;5013;51.840;8.276;2022-12-18T20:07:40;-1.20;1.00
9949;DHT22;5013;51.840;8.276;2022-12-18T20:10:10;-1.20;1.00
9949;DHT22;5013;51.840;8.276;2022-12-18T20:12:37;-1.20;1.00
9949;DHT22;5013;51.840;8.276;2022-12-18T20:15:03;-1.20;1.00